sensor_id;sensor_type;location;lat;lon;timestamp;P1;durP1;ratioP1;P2;durP2;ratioP2
37867;SDS011;24011;48.880;9.190;2023-02-28T00:00:36;0.40;;;0.40;;
37867;SDS011;24011;48.880;9.190;2023-02-28T00:03:13;0.30;;;0.30;;
37867;SDS011;24011;48.880;9.190;2023-02-28T00:05:50;0.50;;;0.50;;
37867;SDS011;24011;48.880;9.190;2023-02-28T00:08:22;0.60;;;0.50;;
37867;SDS011;24011;48.880;9.190;2023-02-28T00:10:54;0.30;;;0.30;;
37867;SDS011;24011;48.880;9.190;2023-02-28T00:13:26;0.40;;;0.40;;
37867;SDS011;24011;48.880;9.190;2023-02-28T00:16:01;0.50;;;0.50;;
37867;SDS011;24011;48.880;9.190;2023-02-28T00:18:38;0.50;;;0.50;;
37867;SDS011;24011;48.880;9.190;2023-02-28T00:21:10;0.40;;;0.40;;
37867;SDS011;24011;48.880;9.190;2023-02-28T00:23:42;0.47;;;0.47;;
37867;SDS011;24011;48.880;9.190;2023-02-28T00:26:14;0.30;;;0.30;;
37867;SDS011;24011;48.880;9.190;2023-02-28T00:28:47;0.50;;;0.50;;
37867;SDS011;24011;48.880;9.190;2023-02-28T00:31:20;0.50;;;0.50;;
37867;SDS011;24011;48.880;9.190;2023-02-28T00:33:51;0.40;;;0.40;;
37867;SDS011;24011;48.880;9.190;2023-02-28T00:36:24;0.50;;;0.50;;
37867;SDS011;24011;48.880;9.190;2023-02-28T00:38:55;0.30;;;0.30;;
37867;SDS011;24011;48.880;9.190;2023-02-28T00:41:26;0.50;;;0.50;;
37867;SDS011;24011;48.880;9.190;2023-02-28T00:43:58;0.50;;;0.50;;
37867;SDS011;24011;48.880;9.190;2023-02-28T00:46:34;0.50;;;0.40;;
37867;SDS011;24011;48.880;9.190;2023-02-28T00:49:10;0.45;;;0.45;;
37867;SDS011;24011;48.880;9.190;2023-02-28T00:51:42;0.50;;;0.50;;
37867;SDS011;24011;48.880;9.190;2023-02-28T00:54:13;0.47;;;0.47;;
37867;SDS011;24011;48.880;9.190;2023-02-28T00:59:22;0.38;;;0.38;;
37867;SDS011;24011;48.880;9.190;2023-02-28T01:01:54;0.50;;;0.50;;
37867;SDS011;24011;48.880;9.190;2023-02-28T01:04:25;0.30;;;0.30;;
37867;SDS011;24011;48.880;9.190;2023-02-28T01:07:01;0.40;;;0.40;;
37867;SDS011;24011;48.880;9.190;2023-02-28T01:09:35;0.50;;;0.50;;
37867;SDS011;24011;48.880;9.190;2023-02-28T01:12:10;0.50;;;0.50;;
37867;SDS011;24011;48.880;9.190;2023-02-28T01:14:41;0.50;;;0.50;;
37867;SDS011;24011;48.880;9.190;2023-02-28T01:17:15;0.38;;;0.38;;
37867;SDS011;24011;48.880;9.190;2023-02-28T01:19:49;0.35;;;0.35;;
37867;SDS011;24011;48.880;9.190;2023-02-28T01:22:25;0.50;;;0.50;;
37867;SDS011;24011;48.880;9.190;2023-02-28T01:24:56;0.40;;;0.40;;
37867;SDS011;24011;48.880;9.190;2023-02-28T01:27:33;0.40;;;0.40;;
37867;SDS011;24011;48.880;9.190;2023-02-28T01:30:08;0.50;;;0.50;;
37867;SDS011;24011;48.880;9.190;2023-02-28T01:32:40;0.50;;;0.50;;
37867;SDS011;24011;48.880;9.190;2023-02-28T01:35:15;0.38;;;0.38;;
37867;SDS011;24011;48.880;9.190;2023-02-28T01:37:51;0.40;;;0.40;;
37867;SDS011;24011;48.880;9.190;2023-02-28T01:43:01;0.43;;;0.43;;
37867;SDS011;24011;48.880;9.190;2023-02-28T01:45:35;0.50;;;0.50;;
37867;SDS011;24011;48.880;9.190;2023-02-28T01:50:38;0.45;;;0.45;;
37867;SDS011;24011;48.880;9.190;2023-02-28T01:53:21;0.40;;;0.40;;
37867;SDS011;24011;48.880;9.190;2023-02-28T01:55:58;0.50;;;0.50;;
37867;SDS011;24011;48.880;9.190;2023-02-28T01:58:29;0.50;;;0.50;;
37867;SDS011;24011;48.880;9.190;2023-02-28T02:01:03;0.30;;;0.30;;
37867;SDS011;24011;48.880;9.190;2023-02-28T02:03:38;0.35;;;0.35;;
37867;SDS011;24011;48.880;9.190;2023-02-28T02:06:10;0.40;;;0.40;;
37867;SDS011;24011;48.880;9.190;2023-02-28T02:08:45;0.50;;;0.50;;
37867;SDS011;24011;48.880;9.190;2023-02-28T02:11:17;0.50;;;0.50;;
37867;SDS011;24011;48.880;9.190;2023-02-28T02:14:05;0.40;;;0.40;;
37867;SDS011;24011;48.880;9.190;2023-02-28T02:16:50;0.50;;;0.50;;
37867;SDS011;24011;48.880;9.190;2023-02-28T02:25:58;0.40;;;0.40;;
37867;SDS011;24011;48.880;9.190;2023-02-28T02:29:09;0.60;;;0.60;;
37867;SDS011;24011;48.880;9.190;2023-02-28T02:32:19;0.50;;;0.50;;
37867;SDS011;24011;48.880;9.190;2023-02-28T02:35:14;0.40;;;0.40;;
37867;SDS011;24011;48.880;9.190;2023-02-28T02:37:53;0.50;;;0.50;;
37867;SDS011;24011;48.880;9.190;2023-02-28T02:40:32;0.50;;;0.50;;
37867;SDS011;24011;48.880;9.190;2023-02-28T02:43:10;0.50;;;0.50;;
37867;SDS011;24011;48.880;9.190;2023-02-28T02:45:52;0.35;;;0.35;;
37867;SDS011;24011;48.880;9.190;2023-02-28T02:48:31;0.38;;;0.38;;
37867;SDS011;24011;48.880;9.190;2023-02-28T02:51:15;0.50;;;0.50;;
37867;SDS011;24011;48.880;9.190;2023-02-28T02:53:52;0.50;;;0.50;;
37867;SDS011;24011;48.880;9.190;2023-02-28T02:56:27;0.43;;;0.43;;
37867;SDS011;24011;48.880;9.190;2023-02-28T02:59:01;0.50;;;0.50;;
37867;SDS011;24011;48.880;9.190;2023-02-28T03:01:40;0.45;;;0.45;;
37867;SDS011;24011;48.880;9.190;2023-02-28T03:04:12;0.45;;;0.45;;
37867;SDS011;24011;48.880;9.190;2023-02-28T03:06:49;0.50;;;0.50;;
37867;SDS011;24011;48.880;9.190;2023-02-28T03:09:25;0.40;;;0.40;;
37867;SDS011;24011;48.880;9.190;2023-02-28T03:11:56;0.40;;;0.40;;
37867;SDS011;24011;48.880;9.190;2023-02-28T03:14:34;0.60;;;0.60;;
37867;SDS011;24011;48.880;9.190;2023-02-28T03:17:27;0.40;;;0.40;;
37867;SDS011;24011;48.880;9.190;2023-02-28T03:20:13;0.47;;;0.47;;
37867;SDS011;24011;48.880;9.190;2023-02-28T03:22:54;0.40;;;0.40;;
37867;SDS011;24011;48.880;9.190;2023-02-28T03:25:35;0.47;;;0.47;;
37867;SDS011;24011;48.880;9.190;2023-02-28T03:28:17;0.40;;;0.40;;
37867;SDS011;24011;48.880;9.190;2023-02-28T03:30:54;0.40;;;0.40;;
37867;SDS011;24011;48.880;9.190;2023-02-28T03:33:30;0.32;;;0.32;;
37867;SDS011;24011;48.880;9.190;2023-02-28T03:36:06;0.40;;;0.40;;
37867;SDS011;24011;48.880;9.190;2023-02-28T03:38:44;0.50;;;0.50;;
37867;SDS011;24011;48.880;9.190;2023-02-28T03:41:17;0.50;;;0.50;;
37867;SDS011;24011;48.880;9.190;2023-02-28T03:44:00;0.40;;;0.40;;
37867;SDS011;24011;48.880;9.190;2023-02-28T03:46:52;0.45;;;0.40;;
37867;SDS011;24011;48.880;9.190;2023-02-28T03:49:30;0.50;;;0.50;;
37867;SDS011;24011;48.880;9.190;2023-02-28T03:52:05;0.50;;;0.50;;
37867;SDS011;24011;48.880;9.190;2023-02-28T03:54:43;0.45;;;0.45;;
37867;SDS011;24011;48.880;9.190;2023-02-28T03:57:22;0.60;;;0.60;;
37867;SDS011;24011;48.880;9.190;2023-02-28T03:59:59;0.40;;;0.40;;
37867;SDS011;24011;48.880;9.190;2023-02-28T04:02:38;0.40;;;0.40;;
37867;SDS011;24011;48.880;9.190;2023-02-28T04:05:15;0.50;;;0.50;;
37867;SDS011;24011;48.880;9.190;2023-02-28T04:10:21;0.50;;;0.50;;
37867;SDS011;24011;48.880;9.190;2023-02-28T04:12:56;0.57;;;0.57;;
37867;SDS011;24011;48.880;9.190;2023-02-28T04:15:30;0.60;;;0.60;;
37867;SDS011;24011;48.880;9.190;2023-02-28T04:18:04;0.70;;;0.70;;
37867;SDS011;24011;48.880;9.190;2023-02-28T04:20:36;0.70;;;0.70;;
37867;SDS011;24011;48.880;9.190;2023-02-28T04:23:09;0.80;;;0.80;;
37867;SDS011;24011;48.880;9.190;2023-02-28T04:25:47;0.65;;;0.65;;
37867;SDS011;24011;48.880;9.190;2023-02-28T04:28:19;0.70;;;0.70;;
37867;SDS011;24011;48.880;9.190;2023-02-28T04:30:53;0.60;;;0.60;;
37867;SDS011;24011;48.880;9.190;2023-02-28T04:33:26;0.60;;;0.60;;
37867;SDS011;24011;48.880;9.190;2023-02-28T04:36:01;0.55;;;0.55;;
37867;SDS011;24011;48.880;9.190;2023-02-28T04:38:37;0.82;;;0.82;;
37867;SDS011;24011;48.880;9.190;2023-02-28T04:41:13;0.60;;;0.60;;
37867;SDS011;24011;48.880;9.190;2023-02-28T04:43:46;0.60;;;0.60;;
37867;SDS011;24011;48.880;9.190;2023-02-28T04:46:19;0.80;;;0.80;;
37867;SDS011;24011;48.880;9.190;2023-02-28T04:48:55;0.73;;;0.73;;
37867;SDS011;24011;48.880;9.190;2023-02-28T04:51:28;0.60;;;0.60;;
37867;SDS011;24011;48.880;9.190;2023-02-28T04:54:05;0.60;;;0.60;;
37867;SDS011;24011;48.880;9.190;2023-02-28T04:56:39;0.70;;;0.70;;
37867;SDS011;24011;48.880;9.190;2023-02-28T04:59:10;0.80;;;0.80;;
37867;SDS011;24011;48.880;9.190;2023-02-28T05:01:45;0.60;;;0.60;;
37867;SDS011;24011;48.880;9.190;2023-02-28T05:04:21;0.70;;;0.70;;
37867;SDS011;24011;48.880;9.190;2023-02-28T05:06:52;0.80;;;0.80;;
37867;SDS011;24011;48.880;9.190;2023-02-28T05:09:26;0.70;;;0.70;;
37867;SDS011;24011;48.880;9.190;2023-02-28T05:12:05;0.80;;;0.80;;
37867;SDS011;24011;48.880;9.190;2023-02-28T05:14:37;0.70;;;0.70;;
37867;SDS011;24011;48.880;9.190;2023-02-28T05:17:07;0.60;;;0.60;;
37867;SDS011;24011;48.880;9.190;2023-02-28T05:19:40;0.70;;;0.70;;
37867;SDS011;24011;48.880;9.190;2023-02-28T05:22:14;0.70;;;0.70;;
37867;SDS011;24011;48.880;9.190;2023-02-28T05:24:45;0.80;;;0.80;;
37867;SDS011;24011;48.880;9.190;2023-02-28T05:27:17;0.90;;;0.90;;
37867;SDS011;24011;48.880;9.190;2023-02-28T05:29:48;0.80;;;0.80;;
37867;SDS011;24011;48.880;9.190;2023-02-28T05:32:21;0.70;;;0.70;;
37867;SDS011;24011;48.880;9.190;2023-02-28T05:34:52;0.82;;;0.80;;
37867;SDS011;24011;48.880;9.190;2023-02-28T05:37:22;1.17;;;1.08;;
37867;SDS011;24011;48.880;9.190;2023-02-28T05:39:52;0.80;;;0.80;;
37867;SDS011;24011;48.880;9.190;2023-02-28T05:42:24;2.03;;;0.90;;
37867;SDS011;24011;48.880;9.190;2023-02-28T05:44:54;0.80;;;0.80;;
37867;SDS011;24011;48.880;9.190;2023-02-28T05:47:25;0.80;;;0.80;;
37867;SDS011;24011;48.880;9.190;2023-02-28T05:49:55;0.80;;;0.80;;
37867;SDS011;24011;48.880;9.190;2023-02-28T05:52:26;0.98;;;0.98;;
37867;SDS011;24011;48.880;9.190;2023-02-28T05:57:31;0.80;;;0.80;;
37867;SDS011;24011;48.880;9.190;2023-02-28T06:00:03;0.80;;;0.80;;
37867;SDS011;24011;48.880;9.190;2023-02-28T06:02:33;0.90;;;0.90;;
37867;SDS011;24011;48.880;9.190;2023-02-28T06:05:05;1.05;;;1.05;;
37867;SDS011;24011;48.880;9.190;2023-02-28T06:07:41;0.93;;;0.93;;
37867;SDS011;24011;48.880;9.190;2023-02-28T06:10:13;1.30;;;0.90;;
37867;SDS011;24011;48.880;9.190;2023-02-28T06:12:44;1.80;;;1.67;;
37867;SDS011;24011;48.880;9.190;2023-02-28T06:15:15;1.10;;;1.10;;
37867;SDS011;24011;48.880;9.190;2023-02-28T06:17:45;1.42;;;1.23;;
37867;SDS011;24011;48.880;9.190;2023-02-28T06:20:14;1.30;;;1.20;;
37867;SDS011;24011;48.880;9.190;2023-02-28T06:22:46;1.00;;;1.00;;
37867;SDS011;24011;48.880;9.190;2023-02-28T06:25:17;1.15;;;1.00;;
37867;SDS011;24011;48.880;9.190;2023-02-28T06:27:48;1.13;;;1.02;;
37867;SDS011;24011;48.880;9.190;2023-02-28T08:44:06;244.25;;;225.88;;
37867;SDS011;24011;48.880;9.190;2023-02-28T09:40:28;298.77;;;271.92;;
37867;SDS011;24011;48.880;9.190;2023-02-28T09:43:18;293.08;;;266.88;;
37867;SDS011;24011;48.880;9.190;2023-02-28T09:56:39;1.20;;;1.10;;
37867;SDS011;24011;48.880;9.190;2023-02-28T10:18:27;1.13;;;1.10;;
37867;SDS011;24011;48.880;9.190;2023-02-28T10:21:16;1.00;;;1.00;;
37867;SDS011;24011;48.880;9.190;2023-02-28T10:24:01;1.30;;;1.20;;
37867;SDS011;24011;48.880;9.190;2023-02-28T10:26:37;1.15;;;1.15;;
37867;SDS011;24011;48.880;9.190;2023-02-28T10:29:08;1.38;;;1.27;;
37867;SDS011;24011;48.880;9.190;2023-02-28T10:31:37;1.40;;;1.30;;
37867;SDS011;24011;48.880;9.190;2023-02-28T10:34:09;2.10;;;1.10;;
37867;SDS011;24011;48.880;9.190;2023-02-28T10:36:41;1.67;;;1.58;;
37867;SDS011;24011;48.880;9.190;2023-02-28T10:42:04;1.65;;;1.40;;
37867;SDS011;24011;48.880;9.190;2023-02-28T10:44:46;1.40;;;1.30;;
37867;SDS011;24011;48.880;9.190;2023-02-28T10:47:16;1.40;;;1.30;;
37867;SDS011;24011;48.880;9.190;2023-02-28T10:49:49;1.40;;;1.30;;
37867;SDS011;24011;48.880;9.190;2023-02-28T10:52:32;1.42;;;1.33;;
37867;SDS011;24011;48.880;9.190;2023-02-28T10:55:18;1.50;;;1.40;;
37867;SDS011;24011;48.880;9.190;2023-02-28T10:57:50;1.13;;;1.13;;
37867;SDS011;24011;48.880;9.190;2023-02-28T11:00:21;1.55;;;1.45;;
37867;SDS011;24011;48.880;9.190;2023-02-28T11:02:52;1.40;;;1.30;;
37867;SDS011;24011;48.880;9.190;2023-02-28T11:05:27;1.50;;;1.40;;
37867;SDS011;24011;48.880;9.190;2023-02-28T11:07:59;1.20;;;1.20;;
37867;SDS011;24011;48.880;9.190;2023-02-28T11:10:34;2.63;;;1.60;;
37867;SDS011;24011;48.880;9.190;2023-02-28T11:13:04;1.67;;;1.58;;
37867;SDS011;24011;48.880;9.190;2023-02-28T11:15:34;1.55;;;1.45;;
37867;SDS011;24011;48.880;9.190;2023-02-28T11:18:06;1.50;;;1.40;;
37867;SDS011;24011;48.880;9.190;2023-02-28T11:20:51;1.42;;;1.33;;
37867;SDS011;24011;48.880;9.190;2023-02-28T11:23:22;1.40;;;1.30;;
37867;SDS011;24011;48.880;9.190;2023-02-28T11:25:55;1.33;;;1.30;;
37867;SDS011;24011;48.880;9.190;2023-02-28T11:28:29;1.60;;;1.50;;
37867;SDS011;24011;48.880;9.190;2023-02-28T11:31:03;1.70;;;1.60;;
37867;SDS011;24011;48.880;9.190;2023-02-28T11:33:40;1.45;;;1.35;;
37867;SDS011;24011;48.880;9.190;2023-02-28T11:36:14;1.40;;;1.30;;
37867;SDS011;24011;48.880;9.190;2023-02-28T11:42:14;1.50;;;1.40;;
37867;SDS011;24011;48.880;9.190;2023-02-28T11:53:19;1.40;;;1.30;;
37867;SDS011;24011;48.880;9.190;2023-02-28T12:01:51;1.60;;;1.50;;
37867;SDS011;24011;48.880;9.190;2023-02-28T12:25:54;301.85;;;274.73;;
37867;SDS011;24011;48.880;9.190;2023-02-28T12:28:31;300.20;;;273.25;;
37867;SDS011;24011;48.880;9.190;2023-02-28T12:45:12;302.15;;;274.85;;
37867;SDS011;24011;48.880;9.190;2023-02-28T12:47:48;302.55;;;275.13;;
37867;SDS011;24011;48.880;9.190;2023-02-28T13:06:43;301.73;;;274.38;;
37867;SDS011;24011;48.880;9.190;2023-02-28T13:09:35;303.27;;;275.77;;
37867;SDS011;24011;48.880;9.190;2023-02-28T13:12:31;308.02;;;279.58;;
37867;SDS011;24011;48.880;9.190;2023-02-28T13:19:56;308.05;;;279.65;;
37867;SDS011;24011;48.880;9.190;2023-02-28T13:22:38;305.45;;;277.30;;
37867;SDS011;24011;48.880;9.190;2023-02-28T13:40:42;311.27;;;282.67;;
37867;SDS011;24011;48.880;9.190;2023-02-28T13:43:12;308.55;;;280.00;;
37867;SDS011;24011;48.880;9.190;2023-02-28T13:48:46;311.50;;;282.98;;
37867;SDS011;24011;48.880;9.190;2023-02-28T13:51:38;312.38;;;283.73;;
37867;SDS011;24011;48.880;9.190;2023-02-28T13:54:15;312.10;;;283.45;;
37867;SDS011;24011;48.880;9.190;2023-02-28T13:57:10;308.58;;;280.08;;
37867;SDS011;24011;48.880;9.190;2023-02-28T13:59:50;308.65;;;280.15;;
37867;SDS011;24011;48.880;9.190;2023-02-28T14:02:36;308.33;;;279.88;;
37867;SDS011;24011;48.880;9.190;2023-02-28T14:05:17;308.55;;;280.05;;
37867;SDS011;24011;48.880;9.190;2023-02-28T14:07:49;308.35;;;279.85;;
37867;SDS011;24011;48.880;9.190;2023-02-28T14:10:23;306.95;;;278.70;;
37867;SDS011;24011;48.880;9.190;2023-02-28T14:16:01;1.60;;;1.50;;
37867;SDS011;24011;48.880;9.190;2023-02-28T14:18:33;1.40;;;1.33;;
37867;SDS011;24011;48.880;9.190;2023-02-28T14:21:19;1.30;;;1.20;;
37867;SDS011;24011;48.880;9.190;2023-02-28T14:24:00;1.33;;;1.23;;
37867;SDS011;24011;48.880;9.190;2023-02-28T14:30:12;1.40;;;1.30;;
37867;SDS011;24011;48.880;9.190;2023-02-28T14:33:11;1.40;;;1.30;;
37867;SDS011;24011;48.880;9.190;2023-02-28T14:35:52;1.50;;;1.30;;
37867;SDS011;24011;48.880;9.190;2023-02-28T14:38:42;1.40;;;1.30;;
37867;SDS011;24011;48.880;9.190;2023-02-28T14:41:19;1.40;;;1.30;;
37867;SDS011;24011;48.880;9.190;2023-02-28T14:43:58;1.50;;;1.40;;
37867;SDS011;24011;48.880;9.190;2023-02-28T14:49:06;1.40;;;1.30;;
37867;SDS011;24011;48.880;9.190;2023-02-28T14:51:43;1.70;;;1.60;;
37867;SDS011;24011;48.880;9.190;2023-02-28T14:54:14;1.65;;;1.55;;
37867;SDS011;24011;48.880;9.190;2023-02-28T14:56:48;1.40;;;1.30;;
37867;SDS011;24011;48.880;9.190;2023-02-28T14:59:23;1.60;;;1.50;;
37867;SDS011;24011;48.880;9.190;2023-02-28T15:04:57;1.38;;;1.30;;
37867;SDS011;24011;48.880;9.190;2023-02-28T15:07:27;1.60;;;1.50;;
37867;SDS011;24011;48.880;9.190;2023-02-28T15:12:39;1.42;;;1.33;;
37867;SDS011;24011;48.880;9.190;2023-02-28T15:15:16;1.42;;;1.33;;
37867;SDS011;24011;48.880;9.190;2023-02-28T15:18:01;1.50;;;1.40;;
37867;SDS011;24011;48.880;9.190;2023-02-28T15:20:35;1.40;;;1.30;;
37867;SDS011;24011;48.880;9.190;2023-02-28T15:23:07;1.20;;;1.20;;
37867;SDS011;24011;48.880;9.190;2023-02-28T15:25:39;1.50;;;1.40;;
37867;SDS011;24011;48.880;9.190;2023-02-28T15:28:12;1.30;;;1.20;;
37867;SDS011;24011;48.880;9.190;2023-02-28T15:30:51;1.50;;;1.40;;
37867;SDS011;24011;48.880;9.190;2023-02-28T15:33:26;1.85;;;1.50;;
37867;SDS011;24011;48.880;9.190;2023-02-28T15:36:10;1.42;;;1.33;;
37867;SDS011;24011;48.880;9.190;2023-02-28T15:38:43;1.60;;;1.50;;
37867;SDS011;24011;48.880;9.190;2023-02-28T15:41:21;1.50;;;1.40;;
37867;SDS011;24011;48.880;9.190;2023-02-28T15:46:43;1.30;;;1.30;;
37867;SDS011;24011;48.880;9.190;2023-02-28T15:49:22;1.38;;;1.20;;
37867;SDS011;24011;48.880;9.190;2023-02-28T15:51:55;2.03;;;1.30;;
37867;SDS011;24011;48.880;9.190;2023-02-28T15:54:31;1.60;;;1.38;;
37867;SDS011;24011;48.880;9.190;2023-02-28T15:57:06;1.35;;;1.25;;
37867;SDS011;24011;48.880;9.190;2023-02-28T15:59:42;1.83;;;1.73;;
37867;SDS011;24011;48.880;9.190;2023-02-28T16:02:21;1.58;;;1.48;;
37867;SDS011;24011;48.880;9.190;2023-02-28T16:05:00;2.25;;;1.10;;
37867;SDS011;24011;48.880;9.190;2023-02-28T16:07:43;2.50;;;1.20;;
37867;SDS011;24011;48.880;9.190;2023-02-28T16:10:13;2.13;;;1.30;;
37867;SDS011;24011;48.880;9.190;2023-02-28T16:12:46;1.17;;;1.17;;
37867;SDS011;24011;48.880;9.190;2023-02-28T16:15:17;1.25;;;1.23;;
37867;SDS011;24011;48.880;9.190;2023-02-28T16:17:49;1.17;;;1.17;;
37867;SDS011;24011;48.880;9.190;2023-02-28T16:20:21;2.10;;;1.20;;
37867;SDS011;24011;48.880;9.190;2023-02-28T16:22:54;1.45;;;1.35;;
37867;SDS011;24011;48.880;9.190;2023-02-28T16:25:34;1.83;;;1.35;;
37867;SDS011;24011;48.880;9.190;2023-02-28T16:28:08;1.58;;;1.48;;
37867;SDS011;24011;48.880;9.190;2023-02-28T16:30:45;1.70;;;1.60;;
37867;SDS011;24011;48.880;9.190;2023-02-28T16:33:17;1.55;;;1.45;;
37867;SDS011;24011;48.880;9.190;2023-02-28T16:35:49;1.20;;;1.20;;
37867;SDS011;24011;48.880;9.190;2023-02-28T16:38:22;1.60;;;1.50;;
37867;SDS011;24011;48.880;9.190;2023-02-28T16:41:01;1.70;;;1.60;;
37867;SDS011;24011;48.880;9.190;2023-02-28T16:43:33;1.58;;;1.48;;
37867;SDS011;24011;48.880;9.190;2023-02-28T16:46:08;1.60;;;1.50;;
37867;SDS011;24011;48.880;9.190;2023-02-28T16:48:42;1.55;;;1.45;;
37867;SDS011;24011;48.880;9.190;2023-02-28T16:51:15;1.48;;;1.38;;
37867;SDS011;24011;48.880;9.190;2023-02-28T16:53:52;1.60;;;1.50;;
37867;SDS011;24011;48.880;9.190;2023-02-28T16:56:27;1.55;;;1.45;;
37867;SDS011;24011;48.880;9.190;2023-02-28T16:59:00;1.50;;;1.40;;
37867;SDS011;24011;48.880;9.190;2023-02-28T17:01:33;1.55;;;1.45;;
37867;SDS011;24011;48.880;9.190;2023-02-28T17:04:06;1.40;;;1.30;;
37867;SDS011;24011;48.880;9.190;2023-02-28T17:06:40;1.40;;;1.30;;
37867;SDS011;24011;48.880;9.190;2023-02-28T17:09:16;1.50;;;1.40;;
37867;SDS011;24011;48.880;9.190;2023-02-28T17:11:54;1.45;;;1.35;;
37867;SDS011;24011;48.880;9.190;2023-02-28T17:14:25;1.40;;;1.30;;
37867;SDS011;24011;48.880;9.190;2023-02-28T17:16:56;1.45;;;1.35;;
37867;SDS011;24011;48.880;9.190;2023-02-28T17:19:29;1.52;;;1.42;;
37867;SDS011;24011;48.880;9.190;2023-02-28T17:22:00;1.38;;;1.30;;
37867;SDS011;24011;48.880;9.190;2023-02-28T17:24:34;1.52;;;1.42;;
37867;SDS011;24011;48.880;9.190;2023-02-28T17:27:05;1.92;;;1.83;;
37867;SDS011;24011;48.880;9.190;2023-02-28T17:29:40;1.35;;;1.30;;
37867;SDS011;24011;48.880;9.190;2023-02-28T17:32:11;1.63;;;1.52;;
37867;SDS011;24011;48.880;9.190;2023-02-28T17:34:46;1.40;;;1.30;;
37867;SDS011;24011;48.880;9.190;2023-02-28T17:37:18;1.60;;;1.50;;
37867;SDS011;24011;48.880;9.190;2023-02-28T17:39:51;1.55;;;1.45;;
37867;SDS011;24011;48.880;9.190;2023-02-28T17:42:23;1.35;;;1.35;;
37867;SDS011;24011;48.880;9.190;2023-02-28T17:44:53;1.70;;;1.60;;
37867;SDS011;24011;48.880;9.190;2023-02-28T17:47:24;1.60;;;1.50;;
37867;SDS011;24011;48.880;9.190;2023-02-28T17:49:54;1.70;;;1.60;;
37867;SDS011;24011;48.880;9.190;2023-02-28T17:52:24;1.77;;;1.67;;
37867;SDS011;24011;48.880;9.190;2023-02-28T17:55:00;1.60;;;1.50;;
37867;SDS011;24011;48.880;9.190;2023-02-28T17:57:31;1.77;;;1.67;;
37867;SDS011;24011;48.880;9.190;2023-02-28T18:00:03;1.50;;;1.40;;
37867;SDS011;24011;48.880;9.190;2023-02-28T18:02:35;1.35;;;1.35;;
37867;SDS011;24011;48.880;9.190;2023-02-28T18:05:06;1.60;;;1.50;;
37867;SDS011;24011;48.880;9.190;2023-02-28T18:07:38;1.73;;;1.63;;
37867;SDS011;24011;48.880;9.190;2023-02-28T18:10:13;1.43;;;1.33;;
37867;SDS011;24011;48.880;9.190;2023-02-28T18:12:50;1.80;;;1.70;;
37867;SDS011;24011;48.880;9.190;2023-02-28T18:15:22;1.60;;;1.50;;
37867;SDS011;24011;48.880;9.190;2023-02-28T18:17:57;1.70;;;1.60;;
37867;SDS011;24011;48.880;9.190;2023-02-28T18:20:30;1.73;;;1.63;;
37867;SDS011;24011;48.880;9.190;2023-02-28T18:23:00;1.60;;;1.50;;
37867;SDS011;24011;48.880;9.190;2023-02-28T18:25:35;1.40;;;1.30;;
37867;SDS011;24011;48.880;9.190;2023-02-28T18:28:12;1.58;;;1.48;;
37867;SDS011;24011;48.880;9.190;2023-02-28T18:33:14;1.80;;;1.70;;
37867;SDS011;24011;48.880;9.190;2023-02-28T18:35:54;1.50;;;1.40;;
37867;SDS011;24011;48.880;9.190;2023-02-28T18:38:26;1.55;;;1.45;;
37867;SDS011;24011;48.880;9.190;2023-02-28T18:41:02;1.65;;;1.55;;
37867;SDS011;24011;48.880;9.190;2023-02-28T18:43:35;1.80;;;1.70;;
37867;SDS011;24011;48.880;9.190;2023-02-28T18:48:39;1.80;;;1.70;;
37867;SDS011;24011;48.880;9.190;2023-02-28T18:51:11;1.65;;;1.55;;
37867;SDS011;24011;48.880;9.190;2023-02-28T18:53:45;1.60;;;1.50;;
37867;SDS011;24011;48.880;9.190;2023-02-28T18:56:21;1.60;;;1.50;;
37867;SDS011;24011;48.880;9.190;2023-02-28T18:58:55;2.00;;;1.90;;
37867;SDS011;24011;48.880;9.190;2023-02-28T19:01:30;1.70;;;1.60;;
37867;SDS011;24011;48.880;9.190;2023-02-28T19:04:02;1.55;;;1.45;;
37867;SDS011;24011;48.880;9.190;2023-02-28T19:06:37;1.58;;;1.48;;
37867;SDS011;24011;48.880;9.190;2023-02-28T19:09:10;1.50;;;1.40;;
37867;SDS011;24011;48.880;9.190;2023-02-28T19:11:44;1.42;;;1.33;;
37867;SDS011;24011;48.880;9.190;2023-02-28T19:14:15;1.50;;;1.40;;
37867;SDS011;24011;48.880;9.190;2023-02-28T19:16:49;1.40;;;1.30;;
37867;SDS011;24011;48.880;9.190;2023-02-28T19:19:20;1.67;;;1.58;;
37867;SDS011;24011;48.880;9.190;2023-02-28T19:24:24;1.60;;;1.42;;
37867;SDS011;24011;48.880;9.190;2023-02-28T19:26:58;1.70;;;1.60;;
37867;SDS011;24011;48.880;9.190;2023-02-28T19:29:30;1.50;;;1.40;;
37867;SDS011;24011;48.880;9.190;2023-02-28T19:32:05;1.60;;;1.50;;
37867;SDS011;24011;48.880;9.190;2023-02-28T19:34:39;1.70;;;1.60;;
37867;SDS011;24011;48.880;9.190;2023-02-28T19:37:11;1.52;;;1.42;;
37867;SDS011;24011;48.880;9.190;2023-02-28T19:39:43;1.65;;;1.55;;
37867;SDS011;24011;48.880;9.190;2023-02-28T19:42:20;1.60;;;1.50;;
37867;SDS011;24011;48.880;9.190;2023-02-28T19:44:52;1.50;;;1.40;;
37867;SDS011;24011;48.880;9.190;2023-02-28T19:47:24;1.30;;;1.20;;
37867;SDS011;24011;48.880;9.190;2023-02-28T19:49:56;1.65;;;1.55;;
37867;SDS011;24011;48.880;9.190;2023-02-28T19:52:27;1.48;;;1.38;;
37867;SDS011;24011;48.880;9.190;2023-02-28T19:54:58;1.73;;;1.63;;
37867;SDS011;24011;48.880;9.190;2023-02-28T19:57:30;1.42;;;1.33;;
37867;SDS011;24011;48.880;9.190;2023-02-28T20:00:02;1.42;;;1.33;;
37867;SDS011;24011;48.880;9.190;2023-02-28T20:02:34;1.45;;;1.35;;
37867;SDS011;24011;48.880;9.190;2023-02-28T20:05:07;1.42;;;1.33;;
37867;SDS011;24011;48.880;9.190;2023-02-28T20:07:39;1.45;;;1.35;;
37867;SDS011;24011;48.880;9.190;2023-02-28T20:10:14;1.35;;;1.25;;
37867;SDS011;24011;48.880;9.190;2023-02-28T20:12:48;1.33;;;1.30;;
37867;SDS011;24011;48.880;9.190;2023-02-28T20:15:21;1.58;;;1.48;;
37867;SDS011;24011;48.880;9.190;2023-02-28T20:17:54;1.48;;;1.38;;
37867;SDS011;24011;48.880;9.190;2023-02-28T20:20:28;1.58;;;1.48;;
37867;SDS011;24011;48.880;9.190;2023-02-28T20:23:02;1.48;;;1.38;;
37867;SDS011;24011;48.880;9.190;2023-02-28T20:25:37;1.58;;;1.48;;
37867;SDS011;24011;48.880;9.190;2023-02-28T20:28:14;1.60;;;1.50;;
37867;SDS011;24011;48.880;9.190;2023-02-28T20:30:48;1.40;;;1.30;;
37867;SDS011;24011;48.880;9.190;2023-02-28T20:33:21;1.40;;;1.30;;
37867;SDS011;24011;48.880;9.190;2023-02-28T20:35:57;1.50;;;1.40;;
37867;SDS011;24011;48.880;9.190;2023-02-28T20:38:30;1.50;;;1.40;;
37867;SDS011;24011;48.880;9.190;2023-02-28T20:41:04;1.38;;;1.30;;
37867;SDS011;24011;48.880;9.190;2023-02-28T20:43:38;1.60;;;1.50;;
37867;SDS011;24011;48.880;9.190;2023-02-28T20:46:11;1.50;;;1.40;;
37867;SDS011;24011;48.880;9.190;2023-02-28T20:48:46;1.58;;;1.48;;
37867;SDS011;24011;48.880;9.190;2023-02-28T20:51:19;1.20;;;1.10;;
37867;SDS011;24011;48.880;9.190;2023-02-28T20:53:52;1.40;;;1.30;;
37867;SDS011;24011;48.880;9.190;2023-02-28T20:56:24;1.50;;;1.40;;
37867;SDS011;24011;48.880;9.190;2023-02-28T20:59:03;1.50;;;1.40;;
37867;SDS011;24011;48.880;9.190;2023-02-28T21:01:36;1.23;;;1.23;;
37867;SDS011;24011;48.880;9.190;2023-02-28T21:04:10;1.40;;;1.30;;
37867;SDS011;24011;48.880;9.190;2023-02-28T21:06:42;1.38;;;1.30;;
37867;SDS011;24011;48.880;9.190;2023-02-28T21:09:16;1.67;;;1.58;;
37867;SDS011;24011;48.880;9.190;2023-02-28T21:11:52;1.40;;;1.30;;
37867;SDS011;24011;48.880;9.190;2023-02-28T21:14:28;1.20;;;1.20;;
37867;SDS011;24011;48.880;9.190;2023-02-28T21:17:02;1.50;;;1.40;;
37867;SDS011;24011;48.880;9.190;2023-02-28T21:19:37;1.27;;;1.17;;
37867;SDS011;24011;48.880;9.190;2023-02-28T21:24:40;1.60;;;1.50;;
37867;SDS011;24011;48.880;9.190;2023-02-28T21:27:11;1.50;;;1.40;;
37867;SDS011;24011;48.880;9.190;2023-02-28T21:29:45;1.88;;;1.77;;